UAL1707 KLAX-KORD
Flight info
| Callsign | UAL1707 |
|---|---|
| Flight time | 3h 27m |
| Altitude | 37000 |
| Route | DOTSS2 CLEEE DCT PKE DCT GUP DCT GCK DCT IRK BENKY6 |
| Aircraft | B739/M-SDE2E3FGHIRWXY/LB1 |
Departure
| Time | 2026-05-06 05:33 |
|---|---|
| Airport | Los Angeles International Airport (KLAX) |
Arrival
| Time | 2026-05-06 09:00 |
|---|---|
| Airport | Chicago O'Hare International Airport (KORD) |
| Time | Latitude | Longitude | Altitude | Speed | Heading |
|---|---|---|---|---|---|
| 2026-05-06 04:44 | 33.94169 | -118.39770 | 94 ft | 0 kts | 82° |
| 2026-05-06 05:17 | 33.94168 | -118.39771 | 94 ft | 2 kts | 82° |
| 2026-05-06 05:17 | 33.94168 | -118.39799 | 94 ft | 4 kts | 104° |
| 2026-05-06 05:17 | 33.94178 | -118.39826 | 94 ft | 4 kts | 135° |
| 2026-05-06 05:17 | 33.94199 | -118.39841 | 93 ft | 3 kts | 172° |
| 2026-05-06 05:18 | 33.94201 | -118.39841 | 95 ft | 5 kts | 173° |
| 2026-05-06 05:22 | 33.94185 | -118.39839 | 92 ft | 5 kts | 173° |
| 2026-05-06 05:22 | 33.94151 | -118.39834 | 94 ft | 5 kts | 173° |
| 2026-05-06 05:22 | 33.94117 | -118.39829 | 96 ft | 5 kts | 173° |
| 2026-05-06 05:22 | 33.94078 | -118.39825 | 95 ft | 6 kts | 179° |
| 2026-05-06 05:23 | 33.94044 | -118.39827 | 97 ft | 1 kts | 176° |
| 2026-05-06 05:23 | 33.94043 | -118.39827 | 97 ft | 0 kts | 176° |
| 2026-05-06 05:26 | 33.94029 | -118.39826 | 97 ft | 6 kts | 175° |
| 2026-05-06 05:27 | 33.93962 | -118.39814 | 97 ft | 12 kts | 169° |
| 2026-05-06 05:27 | 33.93905 | -118.39750 | 102 ft | 12 kts | 97° |
| 2026-05-06 05:27 | 33.93915 | -118.39639 | 102 ft | 16 kts | 84° |
| 2026-05-06 05:27 | 33.93930 | -118.39490 | 102 ft | 19 kts | 83° |
| 2026-05-06 05:28 | 33.93946 | -118.39339 | 100 ft | 18 kts | 83° |
| 2026-05-06 05:28 | 33.93961 | -118.39189 | 100 ft | 18 kts | 83° |
| 2026-05-06 05:28 | 33.93976 | -118.39045 | 101 ft | 17 kts | 83° |
| 2026-05-06 05:28 | 33.93990 | -118.38906 | 101 ft | 16 kts | 83° |
| 2026-05-06 05:29 | 33.94004 | -118.38772 | 101 ft | 16 kts | 83° |
| 2026-05-06 05:29 | 33.94017 | -118.38644 | 102 ft | 15 kts | 83° |
| 2026-05-06 05:29 | 33.94029 | -118.38521 | 102 ft | 15 kts | 82° |
| 2026-05-06 05:29 | 33.94042 | -118.38403 | 102 ft | 14 kts | 83° |
| 2026-05-06 05:30 | 33.94053 | -118.38287 | 102 ft | 14 kts | 83° |
| 2026-05-06 05:30 | 33.94066 | -118.38166 | 102 ft | 15 kts | 83° |
| 2026-05-06 05:30 | 33.94077 | -118.38061 | 102 ft | 8 kts | 83° |
| 2026-05-06 05:30 | 33.94074 | -118.38028 | 102 ft | 0 kts | 109° |
| 2026-05-06 05:32 | 33.94062 | -118.38010 | 102 ft | 6 kts | 141° |
| 2026-05-06 05:32 | 33.94025 | -118.37998 | 107 ft | 6 kts | 171° |
| 2026-05-06 05:32 | 33.93990 | -118.38007 | 108 ft | 6 kts | 233° |
| 2026-05-06 05:32 | 33.93979 | -118.38075 | 109 ft | 21 kts | 262° |
| 2026-05-06 05:33 | 33.93932 | -118.38543 | 109 ft | 91 kts | 263° |
| 2026-05-06 05:33 | 33.93828 | -118.39541 | 107 ft | 147 kts | 263° |
| 2026-05-06 05:33 | 33.93682 | -118.40923 | 333 ft | 174 kts | 262° |
| 2026-05-06 05:33 | 33.93500 | -118.42431 | 836 ft | 189 kts | 260° |
| 2026-05-06 05:34 | 33.93291 | -118.44002 | 1410 ft | 199 kts | 262° |
| 2026-05-06 05:34 | 33.93109 | -118.45796 | 1634 ft | 223 kts | 256° |
| 2026-05-06 05:34 | 33.92319 | -118.47409 | 2066 ft | 240 kts | 230° |
| 2026-05-06 05:34 | 33.91210 | -118.49005 | 2595 ft | 253 kts | 230° |
| 2026-05-06 05:35 | 33.90052 | -118.50615 | 3423 ft | 255 kts | 229° |
| 2026-05-06 05:35 | 33.88884 | -118.52235 | 4226 ft | 258 kts | 230° |
| 2026-05-06 05:35 | 33.87710 | -118.53884 | 4998 ft | 262 kts | 230° |
| 2026-05-06 05:35 | 33.86359 | -118.55364 | 5717 ft | 266 kts | 208° |
| 2026-05-06 05:36 | 33.84579 | -118.55960 | 6479 ft | 270 kts | 182° |
| 2026-05-06 05:36 | 33.82681 | -118.55676 | 7175 ft | 275 kts | 168° |
| 2026-05-06 05:36 | 33.80822 | -118.55156 | 7800 ft | 282 kts | 166° |
| 2026-05-06 05:36 | 33.78901 | -118.54597 | 8487 ft | 286 kts | 166° |
| 2026-05-06 05:37 | 33.76949 | -118.54046 | 9178 ft | 291 kts | 166° |
| 2026-05-06 05:37 | 33.74963 | -118.53500 | 9897 ft | 294 kts | 166° |
| 2026-05-06 05:37 | 33.72930 | -118.52948 | 10327 ft | 308 kts | 166° |
| 2026-05-06 05:37 | 33.70869 | -118.52072 | 10635 ft | 321 kts | 146° |
| 2026-05-06 05:38 | 33.69274 | -118.50219 | 11199 ft | 322 kts | 121° |
| 2026-05-06 05:38 | 33.68338 | -118.47779 | 11840 ft | 323 kts | 108° |
| 2026-05-06 05:38 | 33.67608 | -118.45210 | 12466 ft | 328 kts | 107° |
| 2026-05-06 05:38 | 33.66881 | -118.42591 | 13090 ft | 333 kts | 107° |
| 2026-05-06 05:39 | 33.66123 | -118.39943 | 13736 ft | 337 kts | 108° |
| 2026-05-06 05:39 | 33.65342 | -118.37284 | 14296 ft | 341 kts | 108° |
| 2026-05-06 05:39 | 33.64577 | -118.34593 | 14956 ft | 341 kts | 102° |
| 2026-05-06 05:39 | 33.64345 | -118.31772 | 15549 ft | 341 kts | 89° |
| 2026-05-06 05:40 | 33.64360 | -118.28920 | 16136 ft | 344 kts | 88° |
| 2026-05-06 05:40 | 33.64393 | -118.26036 | 16717 ft | 347 kts | 88° |
| 2026-05-06 05:40 | 33.64423 | -118.23126 | 17328 ft | 349 kts | 88° |
| 2026-05-06 05:40 | 33.64443 | -118.20254 | 17923 ft | 352 kts | 88° |
| 2026-05-06 05:41 | 33.64456 | -118.17267 | 18485 ft | 355 kts | 89° |
| 2026-05-06 05:41 | 33.64462 | -118.14288 | 18995 ft | 357 kts | 89° |
| 2026-05-06 05:41 | 33.64464 | -118.11302 | 19570 ft | 358 kts | 89° |
| 2026-05-06 05:41 | 33.64463 | -118.08310 | 20114 ft | 360 kts | 89° |
| 2026-05-06 05:42 | 33.64461 | -118.05302 | 20627 ft | 362 kts | 89° |
| 2026-05-06 05:42 | 33.64458 | -118.02262 | 21170 ft | 365 kts | 89° |
| 2026-05-06 05:42 | 33.64454 | -117.99257 | 21707 ft | 366 kts | 89° |
| 2026-05-06 05:42 | 33.64449 | -117.96185 | 22242 ft | 368 kts | 89° |
| 2026-05-06 05:43 | 33.64444 | -117.93101 | 22750 ft | 371 kts | 89° |
| 2026-05-06 05:43 | 33.64437 | -117.89999 | 23270 ft | 373 kts | 89° |
| 2026-05-06 05:43 | 33.64431 | -117.86884 | 23778 ft | 374 kts | 89° |
| 2026-05-06 05:43 | 33.64423 | -117.83746 | 24202 ft | 376 kts | 89° |
| 2026-05-06 05:44 | 33.64415 | -117.80600 | 24617 ft | 379 kts | 88° |
| 2026-05-06 05:44 | 33.64661 | -117.77454 | 25007 ft | 380 kts | 78° |
| 2026-05-06 05:44 | 33.65236 | -117.74358 | 25467 ft | 380 kts | 76° |
| 2026-05-06 05:44 | 33.65874 | -117.71275 | 25880 ft | 382 kts | 75° |
| 2026-05-06 05:45 | 33.66522 | -117.68176 | 26273 ft | 384 kts | 76° |
| 2026-05-06 05:45 | 33.67158 | -117.65073 | 26802 ft | 381 kts | 76° |
| 2026-05-06 05:45 | 33.67772 | -117.61997 | 27434 ft | 376 kts | 76° |
| 2026-05-06 05:45 | 33.68375 | -117.58913 | 28037 ft | 373 kts | 76° |
| 2026-05-06 05:46 | 33.68961 | -117.55881 | 28525 ft | 373 kts | 77° |
| 2026-05-06 05:46 | 33.69534 | -117.52893 | 28963 ft | 373 kts | 77° |
| 2026-05-06 05:46 | 33.70116 | -117.49846 | 29574 ft | 367 kts | 77° |
| 2026-05-06 05:46 | 33.70684 | -117.46865 | 30106 ft | 365 kts | 77° |
| 2026-05-06 05:47 | 33.71251 | -117.43889 | 30398 ft | 367 kts | 77° |
| 2026-05-06 05:47 | 33.71817 | -117.40912 | 30563 ft | 372 kts | 77° |
| 2026-05-06 05:47 | 33.72397 | -117.37856 | 30893 ft | 371 kts | 77° |
| 2026-05-06 05:47 | 33.72971 | -117.34826 | 31156 ft | 373 kts | 77° |
| 2026-05-06 05:48 | 33.73551 | -117.31765 | 31347 ft | 377 kts | 77° |
| 2026-05-06 05:48 | 33.74133 | -117.28689 | 31591 ft | 378 kts | 77° |
| 2026-05-06 05:48 | 33.74716 | -117.25604 | 31923 ft | 377 kts | 77° |
| 2026-05-06 05:48 | 33.75197 | -117.22541 | 32102 ft | 381 kts | 86° |
| 2026-05-06 05:49 | 33.75210 | -117.19349 | 32265 ft | 384 kts | 91° |
| 2026-05-06 05:49 | 33.75102 | -117.16152 | 32559 ft | 384 kts | 92° |
| 2026-05-06 05:49 | 33.74982 | -117.12927 | 32783 ft | 387 kts | 92° |
| 2026-05-06 05:49 | 33.74879 | -117.09671 | 32834 ft | 393 kts | 91° |
| 2026-05-06 05:50 | 33.74722 | -117.03013 | 32953 ft | 404 kts | 91° |
| 2026-05-06 05:50 | 33.74578 | -116.96151 | 33050 ft | 417 kts | 91° |
| 2026-05-06 05:51 | 33.74421 | -116.89092 | 33142 ft | 428 kts | 91° |
| 2026-05-06 05:51 | 33.74253 | -116.81817 | 33117 ft | 442 kts | 91° |
| 2026-05-06 05:52 | 33.74077 | -116.74324 | 33012 ft | 453 kts | 91° |
| 2026-05-06 05:52 | 33.73894 | -116.66767 | 32981 ft | 452 kts | 91° |
| 2026-05-06 05:53 | 33.73707 | -116.59221 | 32983 ft | 452 kts | 91° |
| 2026-05-06 05:53 | 33.73516 | -116.51685 | 32976 ft | 451 kts | 91° |
| 2026-05-06 05:54 | 33.73322 | -116.44201 | 32977 ft | 451 kts | 91° |
| 2026-05-06 05:54 | 33.73122 | -116.36665 | 32967 ft | 452 kts | 91° |
| 2026-05-06 05:55 | 33.72917 | -116.29125 | 32964 ft | 453 kts | 91° |
| 2026-05-06 05:55 | 33.72708 | -116.21562 | 32967 ft | 454 kts | 91° |
| 2026-05-06 05:56 | 33.72493 | -116.13955 | 32970 ft | 456 kts | 91° |
| 2026-05-06 05:56 | 33.72521 | -116.06331 | 32942 ft | 456 kts | 77° |
| 2026-05-06 05:57 | 33.74444 | -115.99098 | 32958 ft | 456 kts | 70° |
| 2026-05-06 05:57 | 33.76527 | -115.91946 | 32954 ft | 456 kts | 70° |
| 2026-05-06 05:58 | 33.78579 | -115.84716 | 32948 ft | 456 kts | 70° |
| 2026-05-06 05:58 | 33.80584 | -115.77505 | 32938 ft | 453 kts | 70° |
| 2026-05-06 05:59 | 33.82554 | -115.70362 | 32948 ft | 451 kts | 70° |
| 2026-05-06 05:59 | 33.84517 | -115.63221 | 32945 ft | 448 kts | 70° |
| 2026-05-06 06:00 | 33.86466 | -115.56122 | 32934 ft | 446 kts | 70° |
| 2026-05-06 06:00 | 33.88402 | -115.49056 | 32940 ft | 444 kts | 71° |
| 2026-05-06 06:01 | 33.90325 | -115.42016 | 32948 ft | 442 kts | 71° |
| 2026-05-06 06:01 | 33.92241 | -115.34988 | 32941 ft | 442 kts | 71° |
| 2026-05-06 06:02 | 33.94158 | -115.27939 | 32942 ft | 443 kts | 71° |
| 2026-05-06 06:02 | 33.96062 | -115.20918 | 32942 ft | 445 kts | 71° |
| 2026-05-06 06:03 | 33.97984 | -115.13810 | 32934 ft | 447 kts | 71° |
| 2026-05-06 06:03 | 33.99910 | -115.06669 | 32936 ft | 449 kts | 71° |
| 2026-05-06 06:04 | 34.01842 | -114.99488 | 32925 ft | 451 kts | 71° |
| 2026-05-06 06:04 | 34.03773 | -114.92293 | 32928 ft | 452 kts | 71° |
| 2026-05-06 06:05 | 34.05704 | -114.85077 | 32918 ft | 452 kts | 71° |
| 2026-05-06 06:05 | 34.07318 | -114.79029 | 32919 ft | 452 kts | 71° |
| 2026-05-06 06:06 | 34.09228 | -114.71860 | 32918 ft | 452 kts | 71° |
| 2026-05-06 06:06 | 34.11144 | -114.64645 | 32914 ft | 451 kts | 71° |
| 2026-05-06 06:07 | 34.13048 | -114.57423 | 32907 ft | 451 kts | 71° |
| 2026-05-06 06:07 | 34.14946 | -114.50204 | 32910 ft | 451 kts | 71° |
| 2026-05-06 06:08 | 34.16839 | -114.42986 | 32907 ft | 451 kts | 71° |
| 2026-05-06 06:08 | 34.18732 | -114.35748 | 32906 ft | 452 kts | 71° |
| 2026-05-06 06:09 | 34.20625 | -114.28495 | 32910 ft | 453 kts | 71° |
| 2026-05-06 06:09 | 34.22517 | -114.21223 | 32907 ft | 455 kts | 72° |
| 2026-05-06 06:10 | 34.24408 | -114.13936 | 32916 ft | 456 kts | 72° |
| 2026-05-06 06:10 | 34.26305 | -114.06608 | 32910 ft | 457 kts | 72° |
| 2026-05-06 06:11 | 34.28200 | -113.99264 | 32915 ft | 458 kts | 72° |
| 2026-05-06 06:11 | 34.30096 | -113.91899 | 32913 ft | 458 kts | 72° |
| 2026-05-06 06:12 | 34.31985 | -113.84538 | 32914 ft | 458 kts | 72° |
| 2026-05-06 06:12 | 34.33858 | -113.77221 | 32913 ft | 458 kts | 72° |
| 2026-05-06 06:13 | 34.35736 | -113.69865 | 32908 ft | 457 kts | 72° |
| 2026-05-06 06:13 | 34.37608 | -113.62509 | 32908 ft | 457 kts | 72° |
| 2026-05-06 06:14 | 34.39475 | -113.55154 | 32917 ft | 457 kts | 72° |
| 2026-05-06 06:14 | 34.41336 | -113.47801 | 32915 ft | 457 kts | 72° |
| 2026-05-06 06:15 | 34.43195 | -113.40438 | 32915 ft | 457 kts | 72° |
| 2026-05-06 06:15 | 34.45049 | -113.33071 | 32917 ft | 457 kts | 72° |
| 2026-05-06 06:16 | 34.46901 | -113.25692 | 32922 ft | 458 kts | 72° |
| 2026-05-06 06:16 | 34.48749 | -113.18305 | 32923 ft | 458 kts | 72° |
| 2026-05-06 06:17 | 34.50598 | -113.10899 | 32922 ft | 459 kts | 73° |
| 2026-05-06 06:17 | 34.52431 | -113.03532 | 32930 ft | 460 kts | 73° |
| 2026-05-06 06:18 | 34.54291 | -112.96037 | 32932 ft | 461 kts | 73° |
| 2026-05-06 06:18 | 34.56125 | -112.88622 | 32933 ft | 463 kts | 73° |
| 2026-05-06 06:19 | 34.57974 | -112.81129 | 32956 ft | 464 kts | 73° |
| 2026-05-06 06:19 | 34.59823 | -112.73612 | 32987 ft | 465 kts | 73° |
| 2026-05-06 06:20 | 34.61672 | -112.66070 | 33017 ft | 466 kts | 73° |
| 2026-05-06 06:20 | 34.63517 | -112.58524 | 33054 ft | 467 kts | 73° |
| 2026-05-06 06:21 | 34.65363 | -112.50952 | 33069 ft | 467 kts | 73° |
| 2026-05-06 06:21 | 34.67203 | -112.43381 | 33071 ft | 467 kts | 73° |
| 2026-05-06 06:22 | 34.69040 | -112.35802 | 33073 ft | 468 kts | 73° |
| 2026-05-06 06:22 | 34.70872 | -112.28222 | 33058 ft | 468 kts | 73° |
| 2026-05-06 06:23 | 34.72702 | -112.20624 | 33030 ft | 468 kts | 73° |
| 2026-05-06 06:23 | 34.74529 | -112.13015 | 32993 ft | 469 kts | 73° |
| 2026-05-06 06:24 | 34.76353 | -112.05400 | 33009 ft | 470 kts | 73° |
| 2026-05-06 06:24 | 34.78162 | -111.97818 | 33043 ft | 471 kts | 74° |
| 2026-05-06 06:25 | 34.79987 | -111.90152 | 33066 ft | 472 kts | 74° |
| 2026-05-06 06:26 | 34.82724 | -111.78604 | 33077 ft | 475 kts | 74° |
| 2026-05-06 06:26 | 34.84552 | -111.70865 | 33078 ft | 477 kts | 74° |
| 2026-05-06 06:27 | 34.86383 | -111.63083 | 33061 ft | 479 kts | 74° |
| 2026-05-06 06:27 | 34.88219 | -111.55258 | 33039 ft | 481 kts | 74° |
| 2026-05-06 06:28 | 34.90044 | -111.47457 | 33012 ft | 482 kts | 74° |
| 2026-05-06 06:28 | 34.91882 | -111.39576 | 32997 ft | 483 kts | 75° |
| 2026-05-06 06:29 | 34.93715 | -111.31691 | 32981 ft | 484 kts | 75° |
| 2026-05-06 06:29 | 34.95549 | -111.23773 | 32965 ft | 485 kts | 75° |
| 2026-05-06 06:30 | 34.97378 | -111.15852 | 32967 ft | 485 kts | 75° |
| 2026-05-06 06:30 | 34.99201 | -111.07930 | 32988 ft | 485 kts | 75° |
| 2026-05-06 06:31 | 35.01010 | -111.00047 | 33004 ft | 486 kts | 75° |
| 2026-05-06 06:31 | 35.02825 | -110.92109 | 33028 ft | 486 kts | 75° |
| 2026-05-06 06:32 | 35.04639 | -110.84150 | 33051 ft | 487 kts | 75° |
| 2026-05-06 06:32 | 35.06452 | -110.76167 | 33052 ft | 488 kts | 75° |
| 2026-05-06 06:33 | 35.08251 | -110.68219 | 33051 ft | 490 kts | 75° |
| 2026-05-06 06:33 | 35.10065 | -110.60183 | 33045 ft | 491 kts | 75° |
| 2026-05-06 06:34 | 35.11882 | -110.52101 | 33022 ft | 493 kts | 76° |
| 2026-05-06 06:34 | 35.13687 | -110.44046 | 32994 ft | 495 kts | 76° |
| 2026-05-06 06:35 | 35.15506 | -110.35903 | 32968 ft | 497 kts | 76° |
| 2026-05-06 06:35 | 35.17321 | -110.27746 | 32952 ft | 498 kts | 76° |
| 2026-05-06 06:36 | 35.19126 | -110.19613 | 32950 ft | 499 kts | 76° |
| 2026-05-06 06:36 | 35.20940 | -110.11406 | 32957 ft | 500 kts | 76° |
| 2026-05-06 06:37 | 35.22753 | -110.03172 | 32952 ft | 501 kts | 76° |
| 2026-05-06 06:37 | 35.24559 | -109.94944 | 32950 ft | 501 kts | 76° |
| 2026-05-06 06:38 | 35.26353 | -109.86745 | 32950 ft | 502 kts | 76° |
| 2026-05-06 06:38 | 35.28154 | -109.78482 | 32948 ft | 503 kts | 76° |
| 2026-05-06 06:39 | 35.29953 | -109.70197 | 32948 ft | 503 kts | 77° |
| 2026-05-06 06:39 | 35.31735 | -109.61959 | 32948 ft | 504 kts | 77° |
| 2026-05-06 06:40 | 35.33526 | -109.53656 | 32948 ft | 504 kts | 77° |
| 2026-05-06 06:40 | 35.35315 | -109.45328 | 32943 ft | 505 kts | 77° |
| 2026-05-06 06:41 | 35.37089 | -109.37041 | 32949 ft | 506 kts | 77° |
| 2026-05-06 06:41 | 35.38870 | -109.28686 | 32962 ft | 507 kts | 77° |
| 2026-05-06 06:42 | 35.40648 | -109.20317 | 32984 ft | 508 kts | 77° |
| 2026-05-06 06:42 | 35.42426 | -109.11922 | 33004 ft | 509 kts | 77° |
| 2026-05-06 06:43 | 35.44200 | -109.03510 | 33009 ft | 509 kts | 78° |
| 2026-05-06 06:43 | 35.45960 | -108.95136 | 33051 ft | 511 kts | 78° |
| 2026-05-06 06:44 | 35.47778 | -108.86708 | 33071 ft | 513 kts | 73° |
| 2026-05-06 06:44 | 35.50446 | -108.78558 | 33075 ft | 515 kts | 68° |
| 2026-05-06 06:45 | 35.53305 | -108.70474 | 33074 ft | 516 kts | 68° |
| 2026-05-06 06:45 | 35.56147 | -108.62350 | 33052 ft | 518 kts | 68° |
| 2026-05-06 06:46 | 35.58927 | -108.54244 | 33023 ft | 519 kts | 68° |
| 2026-05-06 06:46 | 35.61705 | -108.46062 | 32983 ft | 519 kts | 69° |
| 2026-05-06 06:47 | 35.64480 | -108.37863 | 32952 ft | 520 kts | 69° |
| 2026-05-06 06:47 | 35.67253 | -108.29657 | 32945 ft | 520 kts | 69° |
| 2026-05-06 06:48 | 35.70022 | -108.21447 | 32938 ft | 520 kts | 69° |
| 2026-05-06 06:48 | 35.72787 | -108.13226 | 32943 ft | 520 kts | 69° |
| 2026-05-06 06:49 | 35.75550 | -108.04990 | 32942 ft | 521 kts | 69° |
| 2026-05-06 06:49 | 35.78308 | -107.96742 | 32943 ft | 521 kts | 69° |
| 2026-05-06 06:50 | 35.81067 | -107.88472 | 32940 ft | 522 kts | 69° |
| 2026-05-06 06:50 | 35.83825 | -107.80181 | 32944 ft | 523 kts | 69° |
| 2026-05-06 06:51 | 35.86563 | -107.71929 | 32949 ft | 524 kts | 69° |
| 2026-05-06 06:51 | 35.89320 | -107.63594 | 32940 ft | 525 kts | 69° |
| 2026-05-06 06:52 | 35.92076 | -107.55241 | 32934 ft | 526 kts | 70° |
| 2026-05-06 06:52 | 35.94831 | -107.46865 | 32939 ft | 527 kts | 70° |
| 2026-05-06 06:53 | 35.97585 | -107.38472 | 32934 ft | 528 kts | 70° |
| 2026-05-06 06:53 | 36.00338 | -107.30054 | 32934 ft | 529 kts | 70° |
| 2026-05-06 06:54 | 36.03090 | -107.21619 | 32925 ft | 530 kts | 70° |
| 2026-05-06 06:54 | 36.05843 | -107.13155 | 32922 ft | 531 kts | 70° |
| 2026-05-06 06:55 | 36.08597 | -107.04664 | 32924 ft | 533 kts | 70° |
| 2026-05-06 06:55 | 36.11350 | -106.96153 | 32928 ft | 534 kts | 70° |
| 2026-05-06 06:56 | 36.14103 | -106.87616 | 32933 ft | 535 kts | 70° |
| 2026-05-06 06:56 | 36.16860 | -106.79040 | 32916 ft | 536 kts | 70° |
| 2026-05-06 06:57 | 36.19610 | -106.70462 | 32909 ft | 537 kts | 70° |
| 2026-05-06 06:57 | 36.22361 | -106.61857 | 32920 ft | 538 kts | 70° |
| 2026-05-06 06:58 | 36.25091 | -106.53292 | 32905 ft | 539 kts | 70° |
| 2026-05-06 06:58 | 36.27836 | -106.44655 | 32911 ft | 539 kts | 70° |
| 2026-05-06 06:59 | 36.30580 | -106.35994 | 32903 ft | 540 kts | 71° |
| 2026-05-06 06:59 | 36.33321 | -106.27315 | 32914 ft | 541 kts | 71° |
| 2026-05-06 07:00 | 36.36060 | -106.18620 | 32898 ft | 542 kts | 71° |
| 2026-05-06 07:00 | 36.38796 | -106.09907 | 32895 ft | 542 kts | 71° |
| 2026-05-06 07:01 | 36.41068 | -106.02650 | 32914 ft | 543 kts | 71° |
| 2026-05-06 07:01 | 36.43799 | -105.93906 | 32909 ft | 544 kts | 71° |
| 2026-05-06 07:02 | 36.46529 | -105.85135 | 32893 ft | 545 kts | 71° |
| 2026-05-06 07:02 | 36.49258 | -105.76344 | 32906 ft | 545 kts | 71° |
| 2026-05-06 07:03 | 36.51982 | -105.67540 | 32925 ft | 546 kts | 71° |
| 2026-05-06 07:03 | 36.54706 | -105.58708 | 33019 ft | 550 kts | 71° |
| 2026-05-06 07:03 | 36.56078 | -105.54246 | 33250 ft | 552 kts | 72° |
| 2026-05-06 07:04 | 36.57452 | -105.49775 | 33514 ft | 554 kts | 71° |
| 2026-05-06 07:04 | 36.58809 | -105.45352 | 33724 ft | 556 kts | 72° |
| 2026-05-06 07:04 | 36.60191 | -105.40840 | 33899 ft | 558 kts | 72° |
| 2026-05-06 07:04 | 36.61576 | -105.36311 | 34042 ft | 561 kts | 72° |
| 2026-05-06 07:05 | 36.62963 | -105.31766 | 34211 ft | 562 kts | 72° |
| 2026-05-06 07:05 | 36.64356 | -105.27199 | 34403 ft | 563 kts | 72° |
| 2026-05-06 07:05 | 36.65745 | -105.22636 | 34594 ft | 564 kts | 72° |
| 2026-05-06 07:05 | 36.67135 | -105.18063 | 34780 ft | 564 kts | 72° |
| 2026-05-06 07:06 | 36.68524 | -105.13486 | 34966 ft | 564 kts | 72° |
| 2026-05-06 07:06 | 36.69909 | -105.08913 | 35176 ft | 563 kts | 72° |
| 2026-05-06 07:06 | 36.71273 | -105.04403 | 35368 ft | 563 kts | 72° |
| 2026-05-06 07:06 | 36.72651 | -104.99839 | 35585 ft | 562 kts | 72° |
| 2026-05-06 07:07 | 36.74025 | -104.95282 | 35797 ft | 562 kts | 72° |
| 2026-05-06 07:07 | 36.75401 | -104.90711 | 36020 ft | 561 kts | 72° |
| 2026-05-06 07:07 | 36.76771 | -104.86148 | 36199 ft | 561 kts | 72° |
| 2026-05-06 07:07 | 36.78139 | -104.81588 | 36375 ft | 562 kts | 72° |
| 2026-05-06 07:08 | 36.79507 | -104.77016 | 36581 ft | 561 kts | 72° |
| 2026-05-06 07:08 | 36.80854 | -104.72511 | 36830 ft | 560 kts | 72° |
| 2026-05-06 07:08 | 36.82213 | -104.67961 | 36980 ft | 558 kts | 72° |
| 2026-05-06 07:09 | 36.84914 | -104.58890 | 36972 ft | 555 kts | 72° |
| 2026-05-06 07:09 | 36.87594 | -104.49861 | 36998 ft | 555 kts | 72° |
| 2026-05-06 07:10 | 36.90279 | -104.40783 | 36978 ft | 558 kts | 72° |
| 2026-05-06 07:10 | 36.92970 | -104.31652 | 36949 ft | 560 kts | 72° |
| 2026-05-06 07:11 | 36.95645 | -104.22547 | 36918 ft | 561 kts | 72° |
| 2026-05-06 07:11 | 36.98334 | -104.13366 | 36920 ft | 561 kts | 72° |
| 2026-05-06 07:12 | 37.01010 | -104.04202 | 36919 ft | 560 kts | 72° |
| 2026-05-06 07:12 | 37.03662 | -103.95089 | 36913 ft | 560 kts | 73° |
| 2026-05-06 07:13 | 37.06317 | -103.85932 | 36923 ft | 559 kts | 73° |
| 2026-05-06 07:13 | 37.08967 | -103.76761 | 36929 ft | 558 kts | 73° |
| 2026-05-06 07:14 | 37.11585 | -103.67673 | 36956 ft | 559 kts | 73° |
| 2026-05-06 07:14 | 37.14221 | -103.58490 | 36968 ft | 559 kts | 73° |
| 2026-05-06 07:15 | 37.16851 | -103.49295 | 36975 ft | 560 kts | 73° |
| 2026-05-06 07:15 | 37.19463 | -103.40134 | 36982 ft | 561 kts | 73° |
| 2026-05-06 07:16 | 37.22093 | -103.30878 | 36986 ft | 563 kts | 73° |
| 2026-05-06 07:16 | 37.24722 | -103.21595 | 36985 ft | 565 kts | 73° |
| 2026-05-06 07:17 | 37.27334 | -103.12341 | 36990 ft | 566 kts | 73° |
| 2026-05-06 07:17 | 37.29963 | -103.02991 | 36989 ft | 567 kts | 73° |
| 2026-05-06 07:18 | 37.32588 | -102.93626 | 36990 ft | 568 kts | 73° |
| 2026-05-06 07:18 | 37.35192 | -102.84302 | 36993 ft | 569 kts | 73° |
| 2026-05-06 07:19 | 37.37652 | -102.75463 | 37002 ft | 569 kts | 73° |
| 2026-05-06 07:21 | 37.40011 | -102.66960 | 37001 ft | 569 kts | 73° |
| 2026-05-06 07:21 | 37.42611 | -102.57557 | 37010 ft | 569 kts | 73° |
| 2026-05-06 07:22 | 37.45206 | -102.48137 | 37016 ft | 570 kts | 73° |
| 2026-05-06 07:22 | 37.47775 | -102.38777 | 37025 ft | 570 kts | 73° |
| 2026-05-06 07:23 | 37.50357 | -102.29336 | 37028 ft | 570 kts | 73° |
| 2026-05-06 07:23 | 37.52932 | -102.19888 | 37036 ft | 570 kts | 73° |
| 2026-05-06 07:24 | 37.55503 | -102.10418 | 37052 ft | 571 kts | 73° |
| 2026-05-06 07:24 | 37.58066 | -102.00946 | 37069 ft | 571 kts | 73° |
| 2026-05-06 07:25 | 37.60609 | -101.91514 | 37085 ft | 572 kts | 73° |
| 2026-05-06 07:25 | 37.63161 | -101.82012 | 37094 ft | 572 kts | 73° |
| 2026-05-06 07:26 | 37.65710 | -101.72489 | 37092 ft | 573 kts | 73° |
| 2026-05-06 07:26 | 37.68253 | -101.62951 | 37090 ft | 574 kts | 73° |
| 2026-05-06 07:27 | 37.70794 | -101.53384 | 37079 ft | 575 kts | 73° |
| 2026-05-06 07:27 | 37.73331 | -101.43796 | 37082 ft | 576 kts | 73° |
| 2026-05-06 07:28 | 37.75863 | -101.34194 | 37080 ft | 576 kts | 73° |
| 2026-05-06 07:28 | 37.79641 | -101.19797 | 37074 ft | 577 kts | 73° |
| 2026-05-06 07:29 | 37.82159 | -101.10153 | 37071 ft | 577 kts | 73° |
| 2026-05-06 07:29 | 37.84670 | -101.00504 | 37078 ft | 578 kts | 73° |
| 2026-05-06 07:30 | 37.87174 | -100.90841 | 37085 ft | 578 kts | 73° |
| 2026-05-06 07:30 | 37.89669 | -100.81178 | 37093 ft | 578 kts | 73° |
| 2026-05-06 07:31 | 37.92176 | -100.71516 | 37092 ft | 578 kts | 71° |
| 2026-05-06 07:31 | 37.95051 | -100.61996 | 37093 ft | 578 kts | 68° |
| 2026-05-06 07:32 | 37.98109 | -100.52575 | 37090 ft | 578 kts | 68° |
| 2026-05-06 07:32 | 38.01149 | -100.43127 | 37091 ft | 578 kts | 68° |
| 2026-05-06 07:33 | 38.04111 | -100.33712 | 37099 ft | 578 kts | 69° |
| 2026-05-06 07:33 | 38.07067 | -100.24203 | 37101 ft | 578 kts | 69° |
| 2026-05-06 07:34 | 38.10012 | -100.14694 | 37107 ft | 578 kts | 69° |
| 2026-05-06 07:34 | 38.12955 | -100.05181 | 37109 ft | 578 kts | 69° |
| 2026-05-06 07:35 | 38.15870 | -99.95731 | 37116 ft | 578 kts | 69° |
| 2026-05-06 07:35 | 38.18799 | -99.86205 | 37116 ft | 579 kts | 69° |
| 2026-05-06 07:36 | 38.21724 | -99.76660 | 37117 ft | 579 kts | 69° |
| 2026-05-06 07:36 | 38.24640 | -99.67106 | 37113 ft | 580 kts | 69° |
| 2026-05-06 07:37 | 38.27551 | -99.57538 | 37125 ft | 580 kts | 69° |
| 2026-05-06 07:37 | 38.30458 | -99.47950 | 37129 ft | 581 kts | 69° |
| 2026-05-06 07:38 | 38.33360 | -99.38344 | 37125 ft | 582 kts | 69° |
| 2026-05-06 07:38 | 38.36259 | -99.28718 | 37119 ft | 582 kts | 69° |
| 2026-05-06 07:39 | 38.39154 | -99.19067 | 37124 ft | 583 kts | 69° |
| 2026-05-06 07:39 | 38.42023 | -99.09469 | 37112 ft | 583 kts | 69° |
| 2026-05-06 07:40 | 38.44905 | -98.99796 | 37118 ft | 583 kts | 69° |
| 2026-05-06 07:40 | 38.47777 | -98.90120 | 37127 ft | 583 kts | 69° |
| 2026-05-06 07:41 | 38.50645 | -98.80425 | 37116 ft | 583 kts | 69° |
| 2026-05-06 07:41 | 38.53504 | -98.70724 | 37119 ft | 584 kts | 69° |
| 2026-05-06 07:42 | 38.56342 | -98.61060 | 37110 ft | 584 kts | 69° |
| 2026-05-06 07:42 | 38.59189 | -98.51332 | 37097 ft | 585 kts | 69° |
| 2026-05-06 07:43 | 38.62029 | -98.41589 | 37097 ft | 585 kts | 69° |
| 2026-05-06 07:43 | 38.64868 | -98.31817 | 37100 ft | 585 kts | 69° |
| 2026-05-06 07:44 | 38.67681 | -98.22096 | 37091 ft | 586 kts | 69° |
| 2026-05-06 07:44 | 38.70502 | -98.12315 | 37088 ft | 586 kts | 69° |
| 2026-05-06 07:45 | 38.73316 | -98.02519 | 37098 ft | 587 kts | 69° |
| 2026-05-06 07:45 | 38.76128 | -97.92697 | 37102 ft | 587 kts | 69° |
| 2026-05-06 07:46 | 38.78933 | -97.82861 | 37109 ft | 587 kts | 69° |
| 2026-05-06 07:46 | 38.81732 | -97.73011 | 37110 ft | 588 kts | 69° |
| 2026-05-06 07:47 | 38.84525 | -97.63145 | 37115 ft | 588 kts | 69° |
| 2026-05-06 07:47 | 38.87307 | -97.53278 | 37105 ft | 588 kts | 69° |
| 2026-05-06 07:48 | 38.90067 | -97.43454 | 37096 ft | 588 kts | 69° |
| 2026-05-06 07:48 | 38.92833 | -97.33571 | 37084 ft | 588 kts | 69° |
| 2026-05-06 07:49 | 38.95592 | -97.23674 | 37061 ft | 588 kts | 69° |
| 2026-05-06 07:49 | 38.98345 | -97.13766 | 37065 ft | 588 kts | 69° |
| 2026-05-06 07:50 | 39.01084 | -97.03865 | 37068 ft | 588 kts | 69° |
| 2026-05-06 07:50 | 39.03816 | -96.93955 | 37077 ft | 587 kts | 69° |
| 2026-05-06 07:51 | 39.06535 | -96.84051 | 37083 ft | 587 kts | 69° |
| 2026-05-06 07:51 | 39.09246 | -96.74139 | 37082 ft | 587 kts | 69° |
| 2026-05-06 07:52 | 39.11927 | -96.64298 | 37088 ft | 586 kts | 70° |
| 2026-05-06 07:52 | 39.14620 | -96.54379 | 37085 ft | 586 kts | 70° |
| 2026-05-06 07:53 | 39.17303 | -96.44454 | 37074 ft | 586 kts | 70° |
| 2026-05-06 07:53 | 39.19974 | -96.34537 | 37069 ft | 586 kts | 70° |
| 2026-05-06 07:54 | 39.22640 | -96.24599 | 37060 ft | 585 kts | 70° |
| 2026-05-06 07:54 | 39.25291 | -96.14677 | 37063 ft | 585 kts | 70° |
| 2026-05-06 07:55 | 39.27921 | -96.04795 | 37058 ft | 585 kts | 70° |
| 2026-05-06 07:55 | 39.30560 | -95.94843 | 37065 ft | 585 kts | 70° |
| 2026-05-06 07:56 | 39.32747 | -95.86563 | 37057 ft | 585 kts | 70° |
| 2026-05-06 07:56 | 39.35792 | -95.74991 | 37058 ft | 585 kts | 70° |
| 2026-05-06 07:57 | 39.38399 | -95.65039 | 37063 ft | 584 kts | 70° |
| 2026-05-06 07:57 | 39.40577 | -95.56693 | 37064 ft | 584 kts | 70° |
| 2026-05-06 07:58 | 39.43151 | -95.46794 | 37064 ft | 584 kts | 70° |
| 2026-05-06 07:58 | 39.45729 | -95.36841 | 37064 ft | 584 kts | 70° |
| 2026-05-06 07:59 | 39.48299 | -95.26878 | 37056 ft | 583 kts | 70° |
| 2026-05-06 07:59 | 39.50858 | -95.16920 | 37053 ft | 583 kts | 70° |
| 2026-05-06 08:00 | 39.53408 | -95.06955 | 37049 ft | 582 kts | 70° |
| 2026-05-06 08:00 | 39.55946 | -94.96993 | 37063 ft | 582 kts | 70° |
| 2026-05-06 08:01 | 39.58475 | -94.87029 | 37062 ft | 582 kts | 70° |
| 2026-05-06 08:01 | 39.60998 | -94.77045 | 37067 ft | 582 kts | 70° |
| 2026-05-06 08:02 | 39.63509 | -94.67073 | 37065 ft | 581 kts | 70° |
| 2026-05-06 08:02 | 39.66011 | -94.57090 | 37044 ft | 581 kts | 70° |
| 2026-05-06 08:03 | 39.68502 | -94.47111 | 37072 ft | 581 kts | 70° |
| 2026-05-06 08:03 | 39.70981 | -94.37142 | 37064 ft | 580 kts | 70° |
| 2026-05-06 08:04 | 39.73435 | -94.27229 | 37076 ft | 580 kts | 70° |
| 2026-05-06 08:04 | 39.75896 | -94.17247 | 37075 ft | 579 kts | 70° |
| 2026-05-06 08:05 | 39.78348 | -94.07261 | 37072 ft | 579 kts | 70° |
| 2026-05-06 08:05 | 39.80791 | -93.97269 | 37057 ft | 579 kts | 70° |
| 2026-05-06 08:06 | 39.83220 | -93.87291 | 37044 ft | 579 kts | 70° |
| 2026-05-06 08:06 | 39.85642 | -93.77301 | 37044 ft | 578 kts | 70° |
| 2026-05-06 08:07 | 39.88038 | -93.67374 | 37033 ft | 578 kts | 70° |
| 2026-05-06 08:07 | 39.90441 | -93.57377 | 37042 ft | 578 kts | 70° |
| 2026-05-06 08:08 | 39.92832 | -93.47388 | 37031 ft | 578 kts | 71° |
| 2026-05-06 08:08 | 39.95216 | -93.37384 | 37037 ft | 578 kts | 71° |
| 2026-05-06 08:09 | 39.97594 | -93.27363 | 37034 ft | 578 kts | 71° |
| 2026-05-06 08:09 | 39.99962 | -93.17341 | 37027 ft | 578 kts | 71° |
| 2026-05-06 08:10 | 40.02306 | -93.07376 | 37024 ft | 578 kts | 71° |
| 2026-05-06 08:10 | 40.04658 | -92.97337 | 37026 ft | 578 kts | 71° |
| 2026-05-06 08:11 | 40.07000 | -92.87293 | 37015 ft | 578 kts | 71° |
| 2026-05-06 08:11 | 40.09332 | -92.77249 | 37019 ft | 578 kts | 71° |
| 2026-05-06 08:12 | 40.11657 | -92.67191 | 37018 ft | 578 kts | 71° |
| 2026-05-06 08:12 | 40.14037 | -92.57231 | 37008 ft | 576 kts | 64° |
| 2026-05-06 08:13 | 40.17344 | -92.47752 | 37023 ft | 571 kts | 58° |
| 2026-05-06 08:13 | 40.20920 | -92.38478 | 37027 ft | 571 kts | 58° |
| 2026-05-06 08:14 | 40.24403 | -92.29116 | 37027 ft | 572 kts | 60° |
| 2026-05-06 08:14 | 40.27792 | -92.19676 | 37011 ft | 573 kts | 60° |
| 2026-05-06 08:15 | 40.31164 | -92.10204 | 37002 ft | 573 kts | 60° |
| 2026-05-06 08:15 | 40.34509 | -92.00815 | 37000 ft | 572 kts | 60° |
| 2026-05-06 08:16 | 40.37876 | -91.91357 | 36994 ft | 572 kts | 60° |
| 2026-05-06 08:16 | 40.41233 | -91.81894 | 36996 ft | 572 kts | 60° |
| 2026-05-06 08:17 | 40.44546 | -91.72411 | 36985 ft | 572 kts | 61° |
| 2026-05-06 08:17 | 40.47765 | -91.62865 | 36981 ft | 571 kts | 62° |
| 2026-05-06 08:18 | 40.50973 | -91.53325 | 36984 ft | 570 kts | 62° |
| 2026-05-06 08:18 | 40.54186 | -91.43800 | 36981 ft | 570 kts | 62° |
| 2026-05-06 08:19 | 40.57407 | -91.34281 | 36985 ft | 569 kts | 61° |
| 2026-05-06 08:19 | 40.60659 | -91.24793 | 36980 ft | 568 kts | 61° |
| 2026-05-06 08:20 | 40.63905 | -91.15305 | 36985 ft | 568 kts | 61° |
| 2026-05-06 08:20 | 40.67128 | -91.05823 | 36975 ft | 568 kts | 61° |
| 2026-05-06 08:21 | 40.68739 | -91.01068 | 36738 ft | 568 kts | 61° |
| 2026-05-06 08:21 | 40.70340 | -90.96329 | 36480 ft | 564 kts | 61° |
| 2026-05-06 08:21 | 40.71927 | -90.91619 | 36230 ft | 559 kts | 61° |
| 2026-05-06 08:21 | 40.73493 | -90.86966 | 35975 ft | 554 kts | 61° |
| 2026-05-06 08:22 | 40.75051 | -90.82336 | 35732 ft | 550 kts | 61° |
| 2026-05-06 08:22 | 40.76595 | -90.77739 | 35490 ft | 548 kts | 61° |
| 2026-05-06 08:22 | 40.78134 | -90.73153 | 35245 ft | 545 kts | 61° |
| 2026-05-06 08:22 | 40.79667 | -90.68577 | 35018 ft | 544 kts | 61° |
| 2026-05-06 08:23 | 40.81171 | -90.64081 | 34794 ft | 542 kts | 62° |
| 2026-05-06 08:23 | 40.82690 | -90.59531 | 34568 ft | 541 kts | 61° |
| 2026-05-06 08:23 | 40.84203 | -90.55001 | 34221 ft | 538 kts | 61° |
| 2026-05-06 08:23 | 40.85708 | -90.50499 | 33741 ft | 535 kts | 62° |
| 2026-05-06 08:24 | 40.87207 | -90.46011 | 33262 ft | 532 kts | 62° |
| 2026-05-06 08:24 | 40.88695 | -90.41553 | 32782 ft | 528 kts | 62° |
| 2026-05-06 08:24 | 40.90169 | -90.37125 | 32316 ft | 525 kts | 63° |
| 2026-05-06 08:24 | 40.91630 | -90.32732 | 31852 ft | 521 kts | 63° |
| 2026-05-06 08:25 | 40.93081 | -90.28358 | 31399 ft | 516 kts | 64° |
| 2026-05-06 08:25 | 40.94516 | -90.24026 | 30946 ft | 512 kts | 64° |
| 2026-05-06 08:25 | 40.95936 | -90.19732 | 30496 ft | 508 kts | 65° |
| 2026-05-06 08:25 | 40.97344 | -90.15468 | 30041 ft | 503 kts | 65° |
| 2026-05-06 08:26 | 40.98736 | -90.11245 | 29521 ft | 499 kts | 65° |
| 2026-05-06 08:26 | 41.00113 | -90.07062 | 29063 ft | 493 kts | 65° |
| 2026-05-06 08:26 | 41.01473 | -90.02924 | 28605 ft | 487 kts | 66° |
| 2026-05-06 08:26 | 41.02816 | -89.98833 | 28149 ft | 483 kts | 66° |
| 2026-05-06 08:27 | 41.04150 | -89.94771 | 27698 ft | 478 kts | 66° |
| 2026-05-06 08:27 | 41.05474 | -89.90765 | 27260 ft | 474 kts | 66° |
| 2026-05-06 08:27 | 41.06793 | -89.86779 | 26809 ft | 470 kts | 66° |
| 2026-05-06 08:27 | 41.08104 | -89.82816 | 26366 ft | 467 kts | 66° |
| 2026-05-06 08:28 | 41.09400 | -89.78889 | 25935 ft | 464 kts | 66° |
| 2026-05-06 08:28 | 41.10686 | -89.74982 | 25509 ft | 461 kts | 66° |
| 2026-05-06 08:28 | 41.11963 | -89.71096 | 25083 ft | 458 kts | 66° |
| 2026-05-06 08:28 | 41.13231 | -89.67232 | 24657 ft | 456 kts | 66° |
| 2026-05-06 08:29 | 41.14471 | -89.63448 | 24239 ft | 453 kts | 66° |
| 2026-05-06 08:29 | 41.15725 | -89.59616 | 23793 ft | 452 kts | 66° |
| 2026-05-06 08:29 | 41.17067 | -89.55841 | 23312 ft | 450 kts | 62° |
| 2026-05-06 08:29 | 41.18538 | -89.52187 | 22835 ft | 447 kts | 59° |
| 2026-05-06 08:30 | 41.20045 | -89.48598 | 22396 ft | 443 kts | 59° |
| 2026-05-06 08:30 | 41.21542 | -89.45031 | 21971 ft | 440 kts | 59° |
| 2026-05-06 08:30 | 41.23007 | -89.41491 | 21550 ft | 436 kts | 59° |
| 2026-05-06 08:30 | 41.24450 | -89.37957 | 21141 ft | 433 kts | 59° |
| 2026-05-06 08:31 | 41.25868 | -89.34452 | 20735 ft | 429 kts | 59° |
| 2026-05-06 08:31 | 41.27275 | -89.30964 | 20332 ft | 426 kts | 59° |
| 2026-05-06 08:31 | 41.28669 | -89.27504 | 19928 ft | 423 kts | 59° |
| 2026-05-06 08:31 | 41.30055 | -89.24054 | 19459 ft | 419 kts | 59° |
| 2026-05-06 08:32 | 41.31398 | -89.20699 | 19336 ft | 403 kts | 59° |
| 2026-05-06 08:32 | 41.32688 | -89.17469 | 19234 ft | 388 kts | 59° |
| 2026-05-06 08:32 | 41.33919 | -89.14384 | 18973 ft | 379 kts | 59° |
| 2026-05-06 08:32 | 41.35153 | -89.11298 | 18558 ft | 377 kts | 58° |
| 2026-05-06 08:33 | 41.36381 | -89.08227 | 18112 ft | 374 kts | 58° |
| 2026-05-06 08:33 | 41.37599 | -89.05176 | 17665 ft | 371 kts | 58° |
| 2026-05-06 08:33 | 41.38806 | -89.02149 | 17239 ft | 367 kts | 58° |
| 2026-05-06 08:33 | 41.39997 | -88.99158 | 16823 ft | 364 kts | 58° |
| 2026-05-06 08:34 | 41.41179 | -88.96185 | 16483 ft | 362 kts | 58° |
| 2026-05-06 08:34 | 41.43514 | -88.90304 | 15901 ft | 355 kts | 59° |
| 2026-05-06 08:34 | 41.44664 | -88.87402 | 15585 ft | 353 kts | 59° |
| 2026-05-06 08:35 | 41.45811 | -88.84507 | 15277 ft | 351 kts | 59° |
| 2026-05-06 08:35 | 41.46945 | -88.81641 | 14978 ft | 348 kts | 59° |
| 2026-05-06 08:35 | 41.48058 | -88.78826 | 14694 ft | 346 kts | 59° |
| 2026-05-06 08:35 | 41.49176 | -88.75995 | 14408 ft | 343 kts | 59° |
| 2026-05-06 08:36 | 41.50286 | -88.73180 | 14109 ft | 341 kts | 59° |
| 2026-05-06 08:36 | 41.51388 | -88.70386 | 13826 ft | 339 kts | 59° |
| 2026-05-06 08:36 | 41.52483 | -88.67607 | 13523 ft | 336 kts | 59° |
| 2026-05-06 08:36 | 41.53566 | -88.64858 | 13235 ft | 333 kts | 59° |
| 2026-05-06 08:37 | 41.54638 | -88.62137 | 12943 ft | 330 kts | 59° |
| 2026-05-06 08:37 | 41.55687 | -88.59469 | 12646 ft | 327 kts | 59° |
| 2026-05-06 08:37 | 41.56782 | -88.56823 | 12349 ft | 322 kts | 51° |
| 2026-05-06 08:37 | 41.58203 | -88.54549 | 12048 ft | 316 kts | 42° |
| 2026-05-06 08:38 | 41.59704 | -88.52426 | 11806 ft | 312 kts | 41° |
| 2026-05-06 08:38 | 41.61181 | -88.50351 | 11728 ft | 305 kts | 42° |
| 2026-05-06 08:38 | 41.62632 | -88.48291 | 11677 ft | 306 kts | 42° |
| 2026-05-06 08:38 | 41.64097 | -88.46192 | 11656 ft | 311 kts | 43° |
| 2026-05-06 08:39 | 41.65578 | -88.44050 | 11613 ft | 314 kts | 43° |
| 2026-05-06 08:39 | 41.67055 | -88.41898 | 11563 ft | 312 kts | 43° |
| 2026-05-06 08:39 | 41.68517 | -88.39761 | 11516 ft | 310 kts | 43° |
| 2026-05-06 08:39 | 41.69973 | -88.37631 | 11407 ft | 309 kts | 43° |
| 2026-05-06 08:40 | 41.71428 | -88.35517 | 11251 ft | 307 kts | 41° |
| 2026-05-06 08:40 | 41.72964 | -88.33563 | 11102 ft | 302 kts | 37° |
| 2026-05-06 08:40 | 41.74530 | -88.31714 | 10947 ft | 298 kts | 37° |
| 2026-05-06 08:40 | 41.76022 | -88.29843 | 10797 ft | 297 kts | 39° |
| 2026-05-06 08:41 | 41.77537 | -88.27978 | 10636 ft | 294 kts | 37° |
| 2026-05-06 08:41 | 41.79061 | -88.26162 | 10492 ft | 292 kts | 37° |
| 2026-05-06 08:41 | 41.80583 | -88.24359 | 10348 ft | 290 kts | 36° |
| 2026-05-06 08:41 | 41.82090 | -88.22578 | 10203 ft | 289 kts | 36° |
| 2026-05-06 08:42 | 41.83597 | -88.20800 | 10076 ft | 289 kts | 36° |
| 2026-05-06 08:42 | 41.85113 | -88.19016 | 9921 ft | 291 kts | 36° |
| 2026-05-06 08:42 | 41.86645 | -88.17216 | 9660 ft | 293 kts | 37° |
| 2026-05-06 08:42 | 41.87930 | -88.15139 | 9423 ft | 296 kts | 57° |
| 2026-05-06 08:43 | 41.88677 | -88.12540 | 9191 ft | 296 kts | 79° |
| 2026-05-06 08:43 | 41.88786 | -88.09831 | 9004 ft | 293 kts | 89° |
| 2026-05-06 08:43 | 41.88767 | -88.07100 | 8791 ft | 292 kts | 90° |
| 2026-05-06 08:43 | 41.88733 | -88.04389 | 8569 ft | 291 kts | 90° |
| 2026-05-06 08:44 | 41.88693 | -88.01683 | 8383 ft | 289 kts | 90° |
| 2026-05-06 08:44 | 41.88651 | -87.99003 | 8225 ft | 286 kts | 90° |
| 2026-05-06 08:44 | 41.88608 | -87.96350 | 8062 ft | 283 kts | 90° |
| 2026-05-06 08:44 | 41.88564 | -87.93719 | 7902 ft | 281 kts | 90° |
| 2026-05-06 08:45 | 41.88519 | -87.91097 | 7749 ft | 281 kts | 90° |
| 2026-05-06 08:45 | 41.88473 | -87.88464 | 7605 ft | 283 kts | 90° |
| 2026-05-06 08:45 | 41.88442 | -87.86708 | 7512 ft | 285 kts | 90° |
| 2026-05-06 08:45 | 41.88380 | -87.83155 | 7301 ft | 283 kts | 90° |
| 2026-05-06 08:46 | 41.88334 | -87.80587 | 7148 ft | 276 kts | 90° |
| 2026-05-06 08:46 | 41.88289 | -87.78033 | 6988 ft | 270 kts | 90° |
| 2026-05-06 08:46 | 41.88244 | -87.75537 | 6824 ft | 264 kts | 90° |
| 2026-05-06 08:46 | 41.88200 | -87.73102 | 6665 ft | 258 kts | 90° |
| 2026-05-06 08:47 | 41.88155 | -87.70712 | 6511 ft | 254 kts | 90° |
| 2026-05-06 08:47 | 41.88105 | -87.68363 | 6353 ft | 250 kts | 90° |
| 2026-05-06 08:47 | 41.88041 | -87.66042 | 6234 ft | 247 kts | 91° |
| 2026-05-06 08:47 | 41.87974 | -87.63750 | 6116 ft | 246 kts | 91° |
| 2026-05-06 08:48 | 41.87905 | -87.61458 | 6031 ft | 245 kts | 91° |
| 2026-05-06 08:48 | 41.87838 | -87.59170 | 6015 ft | 246 kts | 91° |
| 2026-05-06 08:48 | 41.87794 | -87.57649 | 6022 ft | 246 kts | 91° |
| 2026-05-06 08:48 | 41.87730 | -87.55385 | 6019 ft | 237 kts | 91° |
| 2026-05-06 08:49 | 41.87669 | -87.53220 | 6014 ft | 229 kts | 91° |
| 2026-05-06 08:49 | 41.87607 | -87.51097 | 5999 ft | 227 kts | 90° |
| 2026-05-06 08:49 | 41.87544 | -87.48993 | 6008 ft | 226 kts | 91° |
| 2026-05-06 08:49 | 41.87490 | -87.46881 | 6009 ft | 226 kts | 86° |
| 2026-05-06 08:50 | 41.87912 | -87.44895 | 6006 ft | 219 kts | 52° |
| 2026-05-06 08:50 | 41.89036 | -87.43631 | 6005 ft | 210 kts | 17° |
| 2026-05-06 08:50 | 41.90456 | -87.43411 | 6027 ft | 205 kts | 353° |
| 2026-05-06 08:50 | 41.91853 | -87.43575 | 6003 ft | 202 kts | 351° |
| 2026-05-06 08:51 | 41.93227 | -87.43763 | 6016 ft | 194 kts | 351° |
| 2026-05-06 08:51 | 41.94546 | -87.43945 | 6008 ft | 189 kts | 351° |
| 2026-05-06 08:51 | 41.95845 | -87.44126 | 5997 ft | 186 kts | 351° |
| 2026-05-06 08:51 | 41.97112 | -87.44392 | 5991 ft | 183 kts | 334° |
| 2026-05-06 08:52 | 41.97943 | -87.45561 | 6016 ft | 178 kts | 287° |
| 2026-05-06 08:52 | 41.98185 | -87.47230 | 6012 ft | 185 kts | 282° |
| 2026-05-06 08:52 | 41.98401 | -87.48936 | 6014 ft | 184 kts | 279° |
| 2026-05-06 08:52 | 41.98590 | -87.50603 | 5993 ft | 176 kts | 279° |
| 2026-05-06 08:53 | 41.98744 | -87.52206 | 6031 ft | 170 kts | 277° |
| 2026-05-06 08:53 | 41.98834 | -87.53823 | 5882 ft | 178 kts | 274° |
| 2026-05-06 08:53 | 41.98873 | -87.55490 | 5670 ft | 179 kts | 272° |
| 2026-05-06 08:53 | 41.98885 | -87.57122 | 5432 ft | 175 kts | 272° |
| 2026-05-06 08:54 | 41.98887 | -87.58737 | 5192 ft | 171 kts | 271° |
| 2026-05-06 08:54 | 41.98884 | -87.60334 | 4966 ft | 171 kts | 271° |
| 2026-05-06 08:54 | 41.98880 | -87.61944 | 4735 ft | 173 kts | 271° |
| 2026-05-06 08:54 | 41.98875 | -87.63567 | 4486 ft | 174 kts | 271° |
| 2026-05-06 08:55 | 41.98871 | -87.65157 | 4245 ft | 174 kts | 272° |
| 2026-05-06 08:55 | 41.98870 | -87.65268 | 4231 ft | 174 kts | 272° |
| 2026-05-06 08:55 | 41.98870 | -87.65323 | 4229 ft | 174 kts | 272° |
| 2026-05-06 08:56 | 41.98866 | -87.66827 | 4001 ft | 174 kts | 272° |
| 2026-05-06 08:56 | 41.98862 | -87.68427 | 3759 ft | 168 kts | 272° |
| 2026-05-06 08:56 | 41.98858 | -87.69987 | 3544 ft | 165 kts | 273° |
| 2026-05-06 08:56 | 41.98855 | -87.71519 | 3320 ft | 164 kts | 272° |
| 2026-05-06 08:57 | 41.98852 | -87.73073 | 3099 ft | 166 kts | 272° |
| 2026-05-06 08:57 | 41.98848 | -87.74593 | 2894 ft | 159 kts | 273° |
| 2026-05-06 08:57 | 41.98845 | -87.76052 | 2655 ft | 153 kts | 273° |
| 2026-05-06 08:57 | 41.98843 | -87.77459 | 2442 ft | 150 kts | 274° |
| 2026-05-06 08:58 | 41.98842 | -87.78861 | 2245 ft | 152 kts | 273° |
| 2026-05-06 08:58 | 41.98839 | -87.80283 | 2029 ft | 152 kts | 274° |
| 2026-05-06 08:58 | 41.98829 | -87.81693 | 1801 ft | 150 kts | 273° |
| 2026-05-06 08:58 | 41.98820 | -87.83062 | 1607 ft | 147 kts | 274° |
| 2026-05-06 08:59 | 41.98833 | -87.84436 | 1389 ft | 148 kts | 273° |
| 2026-05-06 08:59 | 41.98836 | -87.85802 | 1197 ft | 145 kts | 271° |
| 2026-05-06 08:59 | 41.98827 | -87.87156 | 1007 ft | 145 kts | 272° |
| 2026-05-06 08:59 | 41.98827 | -87.88513 | 790 ft | 143 kts | 272° |
| 2026-05-06 09:00 | 41.98830 | -87.89835 | 667 ft | 136 kts | 271° |
| 2026-05-06 09:00 | 41.98831 | -87.90850 | 669 ft | 76 kts | 270° |
| 2026-05-06 09:00 | 41.98830 | -87.91468 | 667 ft | 61 kts | 270° |
| 2026-05-06 09:00 | 41.98805 | -87.91830 | 667 ft | 29 kts | 239° |
| 2026-05-06 09:01 | 41.98725 | -87.91978 | 667 ft | 14 kts | 217° |
| 2026-05-06 09:01 | 41.98678 | -87.91924 | 668 ft | 11 kts | 90° |
| 2026-05-06 09:01 | 41.98658 | -87.91834 | 667 ft | 11 kts | 140° |
| 2026-05-06 09:01 | 41.98570 | -87.91821 | 668 ft | 15 kts | 180° |
| 2026-05-06 09:02 | 41.98463 | -87.91822 | 668 ft | 18 kts | 180° |
| 2026-05-06 09:02 | 41.98335 | -87.91821 | 669 ft | 18 kts | 179° |
| 2026-05-06 09:02 | 41.98284 | -87.91751 | 669 ft | 13 kts | 80° |
| 2026-05-06 09:02 | 41.98288 | -87.91634 | 669 ft | 12 kts | 90° |
| 2026-05-06 09:03 | 41.98287 | -87.91521 | 669 ft | 12 kts | 90° |
| 2026-05-06 09:03 | 41.98288 | -87.91410 | 670 ft | 12 kts | 90° |
| 2026-05-06 09:03 | 41.98288 | -87.91300 | 671 ft | 13 kts | 90° |
| 2026-05-06 09:03 | 41.98248 | -87.91186 | 668 ft | 14 kts | 137° |
| 2026-05-06 09:04 | 41.98179 | -87.91101 | 668 ft | 13 kts | 150° |
| 2026-05-06 09:04 | 41.98102 | -87.91146 | 667 ft | 9 kts | 213° |
| 2026-05-06 09:04 | 41.98051 | -87.91186 | 668 ft | 8 kts | 208° |
| 2026-05-06 09:04 | 41.97999 | -87.91222 | 668 ft | 8 kts | 207° |
| 2026-05-06 09:05 | 41.97947 | -87.91250 | 668 ft | 8 kts | 185° |
| 2026-05-06 09:05 | 41.97905 | -87.91210 | 668 ft | 7 kts | 102° |
| 2026-05-06 09:05 | 41.97897 | -87.91144 | 668 ft | 7 kts | 100° |
| 2026-05-06 09:05 | 41.97894 | -87.91120 | 666 ft | 0 kts | 100° |
| 2026-05-06 09:06 | 41.97893 | -87.91114 | 667 ft | 1 kts | 99° |
| 2026-05-06 09:06 | 41.97893 | -87.91113 | 667 ft | 0 kts | 99° |